sensor_id;sensor_type;location;lat;lon;timestamp;P1;durP1;ratioP1;P2;durP2;ratioP2
25327;SDS011;13279;51.300;12.394;2023-12-14T00:02:22;23.23;;;12.20;;
25327;SDS011;13279;51.300;12.394;2023-12-14T00:04:51;25.13;;;13.07;;
25327;SDS011;13279;51.300;12.394;2023-12-14T00:07:18;29.00;;;15.00;;
25327;SDS011;13279;51.300;12.394;2023-12-14T00:09:46;27.93;;;13.03;;
25327;SDS011;13279;51.300;12.394;2023-12-14T00:12:13;25.70;;;13.73;;
25327;SDS011;13279;51.300;12.394;2023-12-14T00:14:41;29.13;;;15.67;;
25327;SDS011;13279;51.300;12.394;2023-12-14T00:17:08;32.53;;;15.50;;
25327;SDS011;13279;51.300;12.394;2023-12-14T00:19:36;40.70;;;16.13;;
25327;SDS011;13279;51.300;12.394;2023-12-14T00:22:05;41.83;;;20.10;;
25327;SDS011;13279;51.300;12.394;2023-12-14T00:24:32;43.03;;;19.00;;
25327;SDS011;13279;51.300;12.394;2023-12-14T00:26:59;50.53;;;21.00;;
25327;SDS011;13279;51.300;12.394;2023-12-14T00:29:27;41.60;;;20.43;;
25327;SDS011;13279;51.300;12.394;2023-12-14T00:31:54;50.13;;;21.40;;
25327;SDS011;13279;51.300;12.394;2023-12-14T00:34:22;58.13;;;23.83;;
25327;SDS011;13279;51.300;12.394;2023-12-14T00:36:49;46.57;;;21.33;;
25327;SDS011;13279;51.300;12.394;2023-12-14T00:39:18;54.13;;;23.20;;
25327;SDS011;13279;51.300;12.394;2023-12-14T00:41:45;47.40;;;20.40;;
25327;SDS011;13279;51.300;12.394;2023-12-14T00:44:13;77.30;;;23.47;;
25327;SDS011;13279;51.300;12.394;2023-12-14T00:46:40;116.83;;;22.10;;
25327;SDS011;13279;51.300;12.394;2023-12-14T00:49:08;125.97;;;22.13;;
25327;SDS011;13279;51.300;12.394;2023-12-14T00:51:36;113.23;;;20.57;;
25327;SDS011;13279;51.300;12.394;2023-12-14T00:54:04;131.13;;;21.73;;
25327;SDS011;13279;51.300;12.394;2023-12-14T00:56:33;172.00;;;21.57;;
25327;SDS011;13279;51.300;12.394;2023-12-14T00:59:00;129.13;;;21.20;;
25327;SDS011;13279;51.300;12.394;2023-12-14T01:01:27;90.07;;;21.50;;
25327;SDS011;13279;51.300;12.394;2023-12-14T01:03:55;101.03;;;22.27;;
25327;SDS011;13279;51.300;12.394;2023-12-14T01:06:22;116.67;;;20.20;;
25327;SDS011;13279;51.300;12.394;2023-12-14T01:08:50;114.77;;;21.27;;
25327;SDS011;13279;51.300;12.394;2023-12-14T01:11:17;121.70;;;20.30;;
25327;SDS011;13279;51.300;12.394;2023-12-14T01:13:46;79.70;;;20.50;;
25327;SDS011;13279;51.300;12.394;2023-12-14T01:16:13;108.30;;;21.20;;
25327;SDS011;13279;51.300;12.394;2023-12-14T01:18:41;128.03;;;20.73;;
25327;SDS011;13279;51.300;12.394;2023-12-14T01:21:08;100.73;;;21.80;;
25327;SDS011;13279;51.300;12.394;2023-12-14T01:23:36;111.30;;;20.63;;
25327;SDS011;13279;51.300;12.394;2023-12-14T01:26:05;107.70;;;22.63;;
25327;SDS011;13279;51.300;12.394;2023-12-14T01:28:33;70.77;;;19.80;;
25327;SDS011;13279;51.300;12.394;2023-12-14T01:31:01;72.83;;;21.03;;
25327;SDS011;13279;51.300;12.394;2023-12-14T01:33:29;69.43;;;18.73;;
25327;SDS011;13279;51.300;12.394;2023-12-14T01:35:57;75.67;;;20.43;;
25327;SDS011;13279;51.300;12.394;2023-12-14T01:38:24;68.47;;;20.10;;
25327;SDS011;13279;51.300;12.394;2023-12-14T01:40:52;67.53;;;21.63;;
25327;SDS011;13279;51.300;12.394;2023-12-14T01:43:21;54.27;;;19.50;;
25327;SDS011;13279;51.300;12.394;2023-12-14T01:45:48;62.10;;;19.27;;
25327;SDS011;13279;51.300;12.394;2023-12-14T01:48:17;56.20;;;19.13;;
25327;SDS011;13279;51.300;12.394;2023-12-14T01:50:45;66.30;;;18.70;;
25327;SDS011;13279;51.300;12.394;2023-12-14T01:53:12;50.47;;;17.37;;
25327;SDS011;13279;51.300;12.394;2023-12-14T01:55:39;58.77;;;18.57;;
25327;SDS011;13279;51.300;12.394;2023-12-14T01:58:07;63.57;;;17.43;;
25327;SDS011;13279;51.300;12.394;2023-12-14T02:00:35;48.93;;;15.63;;
25327;SDS011;13279;51.300;12.394;2023-12-14T02:03:06;39.23;;;16.33;;
25327;SDS011;13279;51.300;12.394;2023-12-14T02:05:34;39.10;;;15.43;;
25327;SDS011;13279;51.300;12.394;2023-12-14T02:08:03;48.17;;;16.17;;
25327;SDS011;13279;51.300;12.394;2023-12-14T02:10:31;49.83;;;15.50;;
25327;SDS011;13279;51.300;12.394;2023-12-14T02:12:58;38.17;;;15.57;;
25327;SDS011;13279;51.300;12.394;2023-12-14T02:15:28;44.97;;;14.30;;
25327;SDS011;13279;51.300;12.394;2023-12-14T02:17:56;34.37;;;14.87;;
25327;SDS011;13279;51.300;12.394;2023-12-14T02:20:23;32.00;;;13.73;;
25327;SDS011;13279;51.300;12.394;2023-12-14T02:22:50;35.30;;;13.80;;
25327;SDS011;13279;51.300;12.394;2023-12-14T02:25:18;38.60;;;15.33;;
25327;SDS011;13279;51.300;12.394;2023-12-14T02:27:46;41.00;;;14.50;;
25327;SDS011;13279;51.300;12.394;2023-12-14T02:30:14;54.87;;;14.60;;
25327;SDS011;13279;51.300;12.394;2023-12-14T02:32:42;56.23;;;14.87;;
25327;SDS011;13279;51.300;12.394;2023-12-14T02:35:09;45.67;;;15.83;;
25327;SDS011;13279;51.300;12.394;2023-12-14T02:37:37;44.97;;;15.60;;
25327;SDS011;13279;51.300;12.394;2023-12-14T02:40:07;64.63;;;14.67;;
25327;SDS011;13279;51.300;12.394;2023-12-14T02:42:35;86.70;;;18.53;;
25327;SDS011;13279;51.300;12.394;2023-12-14T02:45:03;62.50;;;15.03;;
25327;SDS011;13279;51.300;12.394;2023-12-14T02:47:31;61.57;;;15.10;;
25327;SDS011;13279;51.300;12.394;2023-12-14T02:49:59;73.00;;;15.30;;
25327;SDS011;13279;51.300;12.394;2023-12-14T02:52:26;92.83;;;16.33;;
25327;SDS011;13279;51.300;12.394;2023-12-14T02:54:53;71.77;;;15.23;;
25327;SDS011;13279;51.300;12.394;2023-12-14T02:57:22;96.93;;;16.03;;
25327;SDS011;13279;51.300;12.394;2023-12-14T02:59:50;98.63;;;16.90;;
25327;SDS011;13279;51.300;12.394;2023-12-14T03:02:17;138.83;;;18.13;;
25327;SDS011;13279;51.300;12.394;2023-12-14T03:04:44;75.03;;;15.97;;
25327;SDS011;13279;51.300;12.394;2023-12-14T03:07:12;94.43;;;16.37;;
25327;SDS011;13279;51.300;12.394;2023-12-14T03:09:39;48.83;;;14.70;;
25327;SDS011;13279;51.300;12.394;2023-12-14T03:12:10;100.07;;;16.43;;
25327;SDS011;13279;51.300;12.394;2023-12-14T03:14:38;88.63;;;16.50;;
25327;SDS011;13279;51.300;12.394;2023-12-14T03:17:07;64.70;;;16.27;;
25327;SDS011;13279;51.300;12.394;2023-12-14T03:19:38;87.67;;;17.07;;
25327;SDS011;13279;51.300;12.394;2023-12-14T03:22:06;97.43;;;17.53;;
25327;SDS011;13279;51.300;12.394;2023-12-14T03:24:34;70.80;;;17.93;;
25327;SDS011;13279;51.300;12.394;2023-12-14T03:27:02;74.97;;;15.40;;
25327;SDS011;13279;51.300;12.394;2023-12-14T03:29:30;62.80;;;16.03;;
25327;SDS011;13279;51.300;12.394;2023-12-14T03:31:59;102.77;;;16.23;;
25327;SDS011;13279;51.300;12.394;2023-12-14T03:34:27;79.67;;;16.40;;
25327;SDS011;13279;51.300;12.394;2023-12-14T03:36:54;63.90;;;15.47;;
25327;SDS011;13279;51.300;12.394;2023-12-14T03:39:22;69.67;;;13.97;;
25327;SDS011;13279;51.300;12.394;2023-12-14T03:41:49;62.90;;;14.63;;
25327;SDS011;13279;51.300;12.394;2023-12-14T03:44:16;82.87;;;14.13;;
25327;SDS011;13279;51.300;12.394;2023-12-14T03:46:44;56.43;;;13.93;;
25327;SDS011;13279;51.300;12.394;2023-12-14T03:49:13;53.93;;;12.80;;
25327;SDS011;13279;51.300;12.394;2023-12-14T03:51:40;51.97;;;12.43;;
25327;SDS011;13279;51.300;12.394;2023-12-14T03:54:08;44.93;;;12.30;;
25327;SDS011;13279;51.300;12.394;2023-12-14T03:56:35;48.10;;;11.40;;
25327;SDS011;13279;51.300;12.394;2023-12-14T03:59:03;55.67;;;12.00;;
25327;SDS011;13279;51.300;12.394;2023-12-14T04:01:30;37.13;;;12.77;;
25327;SDS011;13279;51.300;12.394;2023-12-14T04:03:59;47.97;;;11.67;;
25327;SDS011;13279;51.300;12.394;2023-12-14T04:06:27;38.50;;;12.87;;
25327;SDS011;13279;51.300;12.394;2023-12-14T04:08:54;40.73;;;13.03;;
25327;SDS011;13279;51.300;12.394;2023-12-14T04:11:22;44.73;;;12.77;;
25327;SDS011;13279;51.300;12.394;2023-12-14T04:13:50;41.17;;;14.13;;
25327;SDS011;13279;51.300;12.394;2023-12-14T04:16:19;35.50;;;13.47;;
25327;SDS011;13279;51.300;12.394;2023-12-14T04:18:46;40.90;;;12.77;;
25327;SDS011;13279;51.300;12.394;2023-12-14T04:21:14;48.17;;;15.33;;
25327;SDS011;13279;51.300;12.394;2023-12-14T04:23:43;40.63;;;14.07;;
25327;SDS011;13279;51.300;12.394;2023-12-14T04:26:10;39.90;;;14.97;;
25327;SDS011;13279;51.300;12.394;2023-12-14T04:28:39;40.77;;;14.50;;
25327;SDS011;13279;51.300;12.394;2023-12-14T04:31:09;40.57;;;15.10;;
25327;SDS011;13279;51.300;12.394;2023-12-14T04:33:37;35.40;;;15.00;;
25327;SDS011;13279;51.300;12.394;2023-12-14T04:36:05;39.80;;;15.53;;
25327;SDS011;13279;51.300;12.394;2023-12-14T04:38:32;35.90;;;14.83;;
25327;SDS011;13279;51.300;12.394;2023-12-14T04:41:02;32.10;;;14.90;;
25327;SDS011;13279;51.300;12.394;2023-12-14T04:43:29;37.60;;;16.40;;
25327;SDS011;13279;51.300;12.394;2023-12-14T04:45:58;41.93;;;15.80;;
25327;SDS011;13279;51.300;12.394;2023-12-14T04:48:25;38.67;;;15.73;;
25327;SDS011;13279;51.300;12.394;2023-12-14T04:50:52;31.90;;;13.93;;
25327;SDS011;13279;51.300;12.394;2023-12-14T04:53:20;33.87;;;14.30;;
25327;SDS011;13279;51.300;12.394;2023-12-14T04:55:47;37.67;;;13.33;;
25327;SDS011;13279;51.300;12.394;2023-12-14T04:58:16;46.03;;;14.73;;
25327;SDS011;13279;51.300;12.394;2023-12-14T05:00:44;32.07;;;15.17;;
25327;SDS011;13279;51.300;12.394;2023-12-14T05:03:12;42.70;;;16.03;;
25327;SDS011;13279;51.300;12.394;2023-12-14T05:05:40;36.80;;;15.77;;
25327;SDS011;13279;51.300;12.394;2023-12-14T05:08:08;29.03;;;13.83;;
25327;SDS011;13279;51.300;12.394;2023-12-14T05:10:37;26.13;;;12.67;;
25327;SDS011;13279;51.300;12.394;2023-12-14T05:13:04;28.97;;;13.80;;
25327;SDS011;13279;51.300;12.394;2023-12-14T05:15:33;31.47;;;13.17;;
25327;SDS011;13279;51.300;12.394;2023-12-14T05:18:01;39.93;;;13.83;;
25327;SDS011;13279;51.300;12.394;2023-12-14T05:20:28;40.13;;;13.47;;
25327;SDS011;13279;51.300;12.394;2023-12-14T05:22:55;35.73;;;13.13;;
25327;SDS011;13279;51.300;12.394;2023-12-14T05:25:23;27.87;;;12.27;;
25327;SDS011;13279;51.300;12.394;2023-12-14T05:27:50;34.77;;;12.53;;
25327;SDS011;13279;51.300;12.394;2023-12-14T05:30:17;24.23;;;11.03;;
25327;SDS011;13279;51.300;12.394;2023-12-14T05:32:46;26.17;;;11.77;;
25327;SDS011;13279;51.300;12.394;2023-12-14T05:35:14;23.73;;;11.13;;
25327;SDS011;13279;51.300;12.394;2023-12-14T05:37:41;23.47;;;10.37;;
25327;SDS011;13279;51.300;12.394;2023-12-14T05:40:09;24.23;;;10.57;;
25327;SDS011;13279;51.300;12.394;2023-12-14T05:42:37;20.93;;;9.43;;
25327;SDS011;13279;51.300;12.394;2023-12-14T05:45:05;22.20;;;10.03;;
25327;SDS011;13279;51.300;12.394;2023-12-14T05:47:33;26.07;;;9.53;;
25327;SDS011;13279;51.300;12.394;2023-12-14T05:50:03;26.57;;;10.30;;
25327;SDS011;13279;51.300;12.394;2023-12-14T05:52:31;22.33;;;10.57;;
25327;SDS011;13279;51.300;12.394;2023-12-14T05:54:58;29.60;;;11.83;;
25327;SDS011;13279;51.300;12.394;2023-12-14T05:57:26;23.93;;;11.13;;
25327;SDS011;13279;51.300;12.394;2023-12-14T05:59:54;24.53;;;10.97;;
25327;SDS011;13279;51.300;12.394;2023-12-14T06:02:22;21.27;;;9.90;;
25327;SDS011;13279;51.300;12.394;2023-12-14T06:04:49;26.60;;;9.77;;
25327;SDS011;13279;51.300;12.394;2023-12-14T06:07:18;25.57;;;10.33;;
25327;SDS011;13279;51.300;12.394;2023-12-14T06:09:46;20.67;;;10.20;;
25327;SDS011;13279;51.300;12.394;2023-12-14T06:12:13;20.43;;;10.07;;
25327;SDS011;13279;51.300;12.394;2023-12-14T06:14:41;22.27;;;10.37;;
25327;SDS011;13279;51.300;12.394;2023-12-14T06:17:10;19.70;;;10.13;;
25327;SDS011;13279;51.300;12.394;2023-12-14T06:19:37;23.43;;;10.40;;
25327;SDS011;13279;51.300;12.394;2023-12-14T06:22:05;23.57;;;10.53;;
25327;SDS011;13279;51.300;12.394;2023-12-14T06:24:34;25.10;;;11.07;;
25327;SDS011;13279;51.300;12.394;2023-12-14T06:27:01;19.70;;;9.63;;
25327;SDS011;13279;51.300;12.394;2023-12-14T06:29:29;17.67;;;9.43;;
25327;SDS011;13279;51.300;12.394;2023-12-14T06:31:56;16.83;;;8.97;;
25327;SDS011;13279;51.300;12.394;2023-12-14T06:34:24;18.70;;;9.47;;
25327;SDS011;13279;51.300;12.394;2023-12-14T06:36:51;19.53;;;9.53;;
25327;SDS011;13279;51.300;12.394;2023-12-14T06:39:19;21.07;;;9.17;;
25327;SDS011;13279;51.300;12.394;2023-12-14T06:41:51;17.73;;;9.37;;
25327;SDS011;13279;51.300;12.394;2023-12-14T06:44:19;19.30;;;9.07;;
25327;SDS011;13279;51.300;12.394;2023-12-14T06:46:46;16.87;;;8.93;;
25327;SDS011;13279;51.300;12.394;2023-12-14T06:49:14;17.73;;;9.60;;
25327;SDS011;13279;51.300;12.394;2023-12-14T06:51:41;20.97;;;9.83;;
25327;SDS011;13279;51.300;12.394;2023-12-14T06:54:09;16.37;;;9.03;;
25327;SDS011;13279;51.300;12.394;2023-12-14T06:56:36;19.30;;;9.47;;
25327;SDS011;13279;51.300;12.394;2023-12-14T06:59:05;20.37;;;10.07;;
25327;SDS011;13279;51.300;12.394;2023-12-14T07:01:32;20.03;;;9.93;;
25327;SDS011;13279;51.300;12.394;2023-12-14T07:04:00;24.30;;;10.40;;
25327;SDS011;13279;51.300;12.394;2023-12-14T07:06:28;25.23;;;10.77;;
25327;SDS011;13279;51.300;12.394;2023-12-14T07:08:56;18.73;;;9.97;;
25327;SDS011;13279;51.300;12.394;2023-12-14T07:11:23;19.30;;;9.43;;
25327;SDS011;13279;51.300;12.394;2023-12-14T07:13:51;18.87;;;9.10;;
25327;SDS011;13279;51.300;12.394;2023-12-14T07:16:19;18.83;;;9.90;;
25327;SDS011;13279;51.300;12.394;2023-12-14T07:18:47;16.77;;;9.43;;
25327;SDS011;13279;51.300;12.394;2023-12-14T07:21:14;16.30;;;8.90;;
25327;SDS011;13279;51.300;12.394;2023-12-14T07:23:42;22.00;;;9.43;;
25327;SDS011;13279;51.300;12.394;2023-12-14T07:26:09;16.73;;;8.90;;
25327;SDS011;13279;51.300;12.394;2023-12-14T07:28:37;15.70;;;8.67;;
25327;SDS011;13279;51.300;12.394;2023-12-14T07:31:04;20.50;;;10.07;;
25327;SDS011;13279;51.300;12.394;2023-12-14T07:33:34;24.07;;;10.47;;
25327;SDS011;13279;51.300;12.394;2023-12-14T07:36:01;20.47;;;9.57;;
25327;SDS011;13279;51.300;12.394;2023-12-14T07:38:30;17.67;;;9.03;;
25327;SDS011;13279;51.300;12.394;2023-12-14T07:40:58;17.60;;;8.77;;
25327;SDS011;13279;51.300;12.394;2023-12-14T07:43:25;16.20;;;8.03;;
25327;SDS011;13279;51.300;12.394;2023-12-14T07:45:53;13.60;;;7.43;;
25327;SDS011;13279;51.300;12.394;2023-12-14T07:48:20;13.67;;;7.40;;
25327;SDS011;13279;51.300;12.394;2023-12-14T07:50:49;12.57;;;7.70;;
25327;SDS011;13279;51.300;12.394;2023-12-14T07:53:17;15.03;;;7.77;;
25327;SDS011;13279;51.300;12.394;2023-12-14T07:55:44;21.30;;;10.07;;
25327;SDS011;13279;51.300;12.394;2023-12-14T07:58:12;23.33;;;10.83;;
25327;SDS011;13279;51.300;12.394;2023-12-14T08:00:39;28.83;;;11.57;;
25327;SDS011;13279;51.300;12.394;2023-12-14T08:03:07;29.43;;;12.80;;
25327;SDS011;13279;51.300;12.394;2023-12-14T08:05:35;23.63;;;12.03;;
25327;SDS011;13279;51.300;12.394;2023-12-14T08:08:04;29.20;;;12.43;;
25327;SDS011;13279;51.300;12.394;2023-12-14T08:10:31;28.10;;;13.40;;
25327;SDS011;13279;51.300;12.394;2023-12-14T08:12:59;26.13;;;11.77;;
25327;SDS011;13279;51.300;12.394;2023-12-14T08:15:26;24.77;;;12.07;;
25327;SDS011;13279;51.300;12.394;2023-12-14T08:17:54;24.43;;;11.40;;
25327;SDS011;13279;51.300;12.394;2023-12-14T08:20:21;25.77;;;11.83;;
25327;SDS011;13279;51.300;12.394;2023-12-14T08:22:48;26.97;;;13.13;;
25327;SDS011;13279;51.300;12.394;2023-12-14T08:25:17;25.77;;;13.07;;
25327;SDS011;13279;51.300;12.394;2023-12-14T08:27:45;29.00;;;13.50;;
25327;SDS011;13279;51.300;12.394;2023-12-14T08:30:12;33.57;;;14.77;;
25327;SDS011;13279;51.300;12.394;2023-12-14T08:32:40;33.33;;;14.23;;
25327;SDS011;13279;51.300;12.394;2023-12-14T08:35:08;27.90;;;13.57;;
25327;SDS011;13279;51.300;12.394;2023-12-14T08:37:36;29.17;;;13.37;;
25327;SDS011;13279;51.300;12.394;2023-12-14T08:40:04;31.63;;;14.10;;
25327;SDS011;13279;51.300;12.394;2023-12-14T08:42:35;22.17;;;11.73;;
25327;SDS011;13279;51.300;12.394;2023-12-14T08:45:02;20.23;;;11.20;;
25327;SDS011;13279;51.300;12.394;2023-12-14T08:47:31;23.97;;;12.50;;
25327;SDS011;13279;51.300;12.394;2023-12-14T08:49:58;22.83;;;11.93;;
25327;SDS011;13279;51.300;12.394;2023-12-14T08:52:26;23.73;;;12.57;;
25327;SDS011;13279;51.300;12.394;2023-12-14T08:54:53;28.23;;;13.33;;
25327;SDS011;13279;51.300;12.394;2023-12-14T08:57:20;23.30;;;12.10;;
25327;SDS011;13279;51.300;12.394;2023-12-14T08:59:50;26.87;;;13.90;;
25327;SDS011;13279;51.300;12.394;2023-12-14T09:02:17;33.67;;;14.70;;
25327;SDS011;13279;51.300;12.394;2023-12-14T09:04:45;30.07;;;13.93;;
25327;SDS011;13279;51.300;12.394;2023-12-14T09:07:12;24.23;;;11.97;;
25327;SDS011;13279;51.300;12.394;2023-12-14T09:09:40;22.67;;;11.53;;
25327;SDS011;13279;51.300;12.394;2023-12-14T09:12:08;28.97;;;12.43;;
25327;SDS011;13279;51.300;12.394;2023-12-14T09:14:35;29.83;;;12.60;;
25327;SDS011;13279;51.300;12.394;2023-12-14T09:17:04;26.40;;;13.53;;
25327;SDS011;13279;51.300;12.394;2023-12-14T09:19:32;30.67;;;14.03;;
25327;SDS011;13279;51.300;12.394;2023-12-14T09:22:00;28.50;;;13.03;;
25327;SDS011;13279;51.300;12.394;2023-12-14T09:24:27;26.63;;;12.47;;
25327;SDS011;13279;51.300;12.394;2023-12-14T09:26:55;21.67;;;11.33;;
25327;SDS011;13279;51.300;12.394;2023-12-14T09:29:23;23.77;;;11.97;;
25327;SDS011;13279;51.300;12.394;2023-12-14T09:31:50;21.10;;;9.57;;
25327;SDS011;13279;51.300;12.394;2023-12-14T09:34:19;19.00;;;9.53;;
25327;SDS011;13279;51.300;12.394;2023-12-14T09:36:46;19.60;;;10.10;;
25327;SDS011;13279;51.300;12.394;2023-12-14T09:39:13;19.20;;;9.40;;
25327;SDS011;13279;51.300;12.394;2023-12-14T09:41:41;15.73;;;8.70;;
25327;SDS011;13279;51.300;12.394;2023-12-14T09:44:09;19.63;;;9.37;;
25327;SDS011;13279;51.300;12.394;2023-12-14T09:46:37;18.17;;;9.43;;
25327;SDS011;13279;51.300;12.394;2023-12-14T09:49:07;17.13;;;9.23;;
25327;SDS011;13279;51.300;12.394;2023-12-14T09:51:37;16.53;;;9.03;;
25327;SDS011;13279;51.300;12.394;2023-12-14T09:54:06;15.40;;;7.93;;
25327;SDS011;13279;51.300;12.394;2023-12-14T09:56:33;11.87;;;6.43;;
25327;SDS011;13279;51.300;12.394;2023-12-14T09:59:02;15.90;;;7.90;;
25327;SDS011;13279;51.300;12.394;2023-12-14T10:01:30;16.13;;;7.77;;
25327;SDS011;13279;51.300;12.394;2023-12-14T10:04:07;13.93;;;8.20;;
25327;SDS011;13279;51.300;12.394;2023-12-14T10:06:37;13.50;;;7.00;;
25327;SDS011;13279;51.300;12.394;2023-12-14T10:09:05;11.60;;;7.20;;
25327;SDS011;13279;51.300;12.394;2023-12-14T10:11:35;11.57;;;7.03;;
25327;SDS011;13279;51.300;12.394;2023-12-14T10:14:02;9.93;;;6.30;;
25327;SDS011;13279;51.300;12.394;2023-12-14T10:16:36;9.20;;;6.27;;
25327;SDS011;13279;51.300;12.394;2023-12-14T10:19:03;9.33;;;6.10;;
25327;SDS011;13279;51.300;12.394;2023-12-14T10:21:31;11.90;;;6.67;;
25327;SDS011;13279;51.300;12.394;2023-12-14T10:23:59;11.70;;;6.87;;
25327;SDS011;13279;51.300;12.394;2023-12-14T10:26:27;10.43;;;6.83;;
25327;SDS011;13279;51.300;12.394;2023-12-14T10:28:55;10.90;;;5.90;;
25327;SDS011;13279;51.300;12.394;2023-12-14T10:31:24;11.07;;;6.80;;
25327;SDS011;13279;51.300;12.394;2023-12-14T10:33:51;10.70;;;6.23;;
25327;SDS011;13279;51.300;12.394;2023-12-14T10:36:20;12.57;;;6.23;;
25327;SDS011;13279;51.300;12.394;2023-12-14T10:38:51;9.20;;;6.03;;
25327;SDS011;13279;51.300;12.394;2023-12-14T10:41:21;15.20;;;6.47;;
25327;SDS011;13279;51.300;12.394;2023-12-14T10:43:50;9.53;;;5.67;;
25327;SDS011;13279;51.300;12.394;2023-12-14T10:46:20;12.30;;;6.53;;
25327;SDS011;13279;51.300;12.394;2023-12-14T10:48:48;11.77;;;6.90;;
25327;SDS011;13279;51.300;12.394;2023-12-14T10:51:17;11.77;;;6.63;;
25327;SDS011;13279;51.300;12.394;2023-12-14T10:53:47;12.57;;;7.27;;
25327;SDS011;13279;51.300;12.394;2023-12-14T10:56:15;12.83;;;6.83;;
25327;SDS011;13279;51.300;12.394;2023-12-14T10:58:45;14.97;;;7.37;;
25327;SDS011;13279;51.300;12.394;2023-12-14T11:01:14;15.77;;;6.97;;
25327;SDS011;13279;51.300;12.394;2023-12-14T11:03:42;11.13;;;6.70;;
25327;SDS011;13279;51.300;12.394;2023-12-14T11:06:29;9.30;;;6.13;;
25327;SDS011;13279;51.300;12.394;2023-12-14T11:08:58;19.60;;;6.63;;
25327;SDS011;13279;51.300;12.394;2023-12-14T11:11:28;11.33;;;6.03;;
25327;SDS011;13279;51.300;12.394;2023-12-14T11:13:58;8.40;;;5.90;;
25327;SDS011;13279;51.300;12.394;2023-12-14T11:16:26;8.30;;;5.33;;
25327;SDS011;13279;51.300;12.394;2023-12-14T11:24:54;11.10;;;6.60;;
25327;SDS011;13279;51.300;12.394;2023-12-14T11:27:28;10.47;;;6.10;;
25327;SDS011;13279;51.300;12.394;2023-12-14T11:29:58;8.63;;;5.00;;
25327;SDS011;13279;51.300;12.394;2023-12-14T11:32:26;12.37;;;6.10;;
25327;SDS011;13279;51.300;12.394;2023-12-14T11:34:55;10.63;;;6.00;;
25327;SDS011;13279;51.300;12.394;2023-12-14T11:37:22;11.97;;;5.40;;
25327;SDS011;13279;51.300;12.394;2023-12-14T11:39:50;7.43;;;5.07;;
25327;SDS011;13279;51.300;12.394;2023-12-14T11:42:19;7.53;;;5.33;;
25327;SDS011;13279;51.300;12.394;2023-12-14T11:44:47;7.67;;;4.63;;
25327;SDS011;13279;51.300;12.394;2023-12-14T11:47:16;7.73;;;4.37;;
25327;SDS011;13279;51.300;12.394;2023-12-14T11:49:43;8.07;;;4.10;;
25327;SDS011;13279;51.300;12.394;2023-12-14T11:52:11;7.47;;;4.43;;
25327;SDS011;13279;51.300;12.394;2023-12-14T11:54:38;5.93;;;4.13;;
25327;SDS011;13279;51.300;12.394;2023-12-14T11:57:06;7.93;;;3.97;;
25327;SDS011;13279;51.300;12.394;2023-12-14T11:59:35;11.93;;;4.40;;
25327;SDS011;13279;51.300;12.394;2023-12-14T12:02:03;8.97;;;3.90;;
25327;SDS011;13279;51.300;12.394;2023-12-14T12:04:32;9.57;;;4.23;;
25327;SDS011;13279;51.300;12.394;2023-12-14T12:07:00;11.43;;;4.40;;
25327;SDS011;13279;51.300;12.394;2023-12-14T12:09:33;9.63;;;4.87;;
25327;SDS011;13279;51.300;12.394;2023-12-14T12:12:07;9.33;;;4.43;;
25327;SDS011;13279;51.300;12.394;2023-12-14T12:14:36;8.53;;;4.37;;
25327;SDS011;13279;51.300;12.394;2023-12-14T12:17:05;11.50;;;5.17;;
25327;SDS011;13279;51.300;12.394;2023-12-14T12:19:34;7.47;;;4.60;;
25327;SDS011;13279;51.300;12.394;2023-12-14T12:22:03;7.57;;;4.70;;
25327;SDS011;13279;51.300;12.394;2023-12-14T12:24:30;9.53;;;4.80;;
25327;SDS011;13279;51.300;12.394;2023-12-14T12:26:58;12.57;;;6.07;;
25327;SDS011;13279;51.300;12.394;2023-12-14T12:29:26;17.13;;;6.80;;
25327;SDS011;13279;51.300;12.394;2023-12-14T12:31:53;16.83;;;6.43;;
25327;SDS011;13279;51.300;12.394;2023-12-14T12:34:21;10.83;;;6.43;;
25327;SDS011;13279;51.300;12.394;2023-12-14T12:36:50;11.00;;;5.73;;
25327;SDS011;13279;51.300;12.394;2023-12-14T12:39:17;13.47;;;7.80;;
25327;SDS011;13279;51.300;12.394;2023-12-14T12:41:45;9.90;;;5.97;;
25327;SDS011;13279;51.300;12.394;2023-12-14T12:44:12;16.93;;;7.83;;
25327;SDS011;13279;51.300;12.394;2023-12-14T12:46:40;17.57;;;7.50;;
25327;SDS011;13279;51.300;12.394;2023-12-14T12:49:08;14.57;;;7.17;;
25327;SDS011;13279;51.300;12.394;2023-12-14T12:51:35;15.63;;;6.77;;
25327;SDS011;13279;51.300;12.394;2023-12-14T12:54:04;13.67;;;6.20;;
25327;SDS011;13279;51.300;12.394;2023-12-14T12:56:32;14.50;;;6.43;;
25327;SDS011;13279;51.300;12.394;2023-12-14T12:58:59;11.63;;;6.07;;
25327;SDS011;13279;51.300;12.394;2023-12-14T13:01:28;12.00;;;6.70;;
25327;SDS011;13279;51.300;12.394;2023-12-14T13:03:55;14.10;;;6.17;;
25327;SDS011;13279;51.300;12.394;2023-12-14T13:06:23;11.07;;;6.33;;
25327;SDS011;13279;51.300;12.394;2023-12-14T13:08:51;13.40;;;6.70;;
25327;SDS011;13279;51.300;12.394;2023-12-14T13:11:20;12.60;;;7.00;;
25327;SDS011;13279;51.300;12.394;2023-12-14T13:13:48;11.43;;;6.27;;
25327;SDS011;13279;51.300;12.394;2023-12-14T13:16:15;10.13;;;5.60;;
25327;SDS011;13279;51.300;12.394;2023-12-14T13:18:43;14.83;;;5.33;;
25327;SDS011;13279;51.300;12.394;2023-12-14T13:21:11;10.17;;;5.33;;
25327;SDS011;13279;51.300;12.394;2023-12-14T13:23:39;7.23;;;4.57;;
25327;SDS011;13279;51.300;12.394;2023-12-14T13:26:06;7.93;;;5.13;;
25327;SDS011;13279;51.300;12.394;2023-12-14T13:28:35;10.63;;;4.50;;
25327;SDS011;13279;51.300;12.394;2023-12-14T13:31:02;9.90;;;5.17;;
25327;SDS011;13279;51.300;12.394;2023-12-14T13:33:30;8.27;;;5.20;;
25327;SDS011;13279;51.300;12.394;2023-12-14T13:35:58;6.77;;;4.20;;
25327;SDS011;13279;51.300;12.394;2023-12-14T13:38:25;7.63;;;4.17;;
25327;SDS011;13279;51.300;12.394;2023-12-14T13:40:52;9.97;;;4.80;;
25327;SDS011;13279;51.300;12.394;2023-12-14T13:43:20;5.43;;;4.03;;
25327;SDS011;13279;51.300;12.394;2023-12-14T13:45:48;7.40;;;4.70;;
25327;SDS011;13279;51.300;12.394;2023-12-14T13:48:17;6.50;;;4.50;;
25327;SDS011;13279;51.300;12.394;2023-12-14T13:50:45;8.77;;;4.83;;
25327;SDS011;13279;51.300;12.394;2023-12-14T13:53:12;6.33;;;4.37;;
25327;SDS011;13279;51.300;12.394;2023-12-14T13:55:40;9.20;;;4.83;;
25327;SDS011;13279;51.300;12.394;2023-12-14T13:58:08;8.13;;;4.53;;
25327;SDS011;13279;51.300;12.394;2023-12-14T14:00:35;13.83;;;5.77;;
25327;SDS011;13279;51.300;12.394;2023-12-14T14:03:05;9.87;;;5.83;;
25327;SDS011;13279;51.300;12.394;2023-12-14T14:05:32;10.20;;;5.13;;
25327;SDS011;13279;51.300;12.394;2023-12-14T14:08:00;13.23;;;5.57;;
25327;SDS011;13279;51.300;12.394;2023-12-14T14:10:29;12.17;;;5.43;;
25327;SDS011;13279;51.300;12.394;2023-12-14T14:12:56;8.57;;;5.27;;
25327;SDS011;13279;51.300;12.394;2023-12-14T14:15:25;9.53;;;5.53;;
25327;SDS011;13279;51.300;12.394;2023-12-14T14:17:52;10.63;;;6.50;;
25327;SDS011;13279;51.300;12.394;2023-12-14T14:20:22;7.50;;;4.83;;
25327;SDS011;13279;51.300;12.394;2023-12-14T14:22:50;10.17;;;5.23;;
25327;SDS011;13279;51.300;12.394;2023-12-14T14:25:18;11.37;;;6.57;;
25327;SDS011;13279;51.300;12.394;2023-12-14T14:27:45;13.67;;;6.13;;